sensor_id;sensor_type;location;lat;lon;timestamp;P1;durP1;ratioP1;P2;durP2;ratioP2
14381;SDS011;7275;50.328;8.720;2023-08-17T00:02:20;1.43;;;1.00;;
14381;SDS011;7275;50.328;8.720;2023-08-17T00:04:48;1.90;;;1.30;;
14381;SDS011;7275;50.328;8.720;2023-08-17T00:07:15;1.30;;;1.20;;
14381;SDS011;7275;50.328;8.720;2023-08-17T00:09:43;1.90;;;1.03;;
14381;SDS011;7275;50.328;8.720;2023-08-17T00:12:10;1.90;;;1.20;;
14381;SDS011;7275;50.328;8.720;2023-08-17T00:14:39;1.40;;;1.10;;
14381;SDS011;7275;50.328;8.720;2023-08-17T00:17:07;1.50;;;1.10;;
14381;SDS011;7275;50.328;8.720;2023-08-17T00:19:34;1.30;;;1.10;;
14381;SDS011;7275;50.328;8.720;2023-08-17T00:22:02;1.60;;;1.20;;
14381;SDS011;7275;50.328;8.720;2023-08-17T00:24:30;5.50;;;1.20;;
14381;SDS011;7275;50.328;8.720;2023-08-17T00:26:57;2.43;;;1.30;;
14381;SDS011;7275;50.328;8.720;2023-08-17T00:29:25;3.33;;;1.20;;
14381;SDS011;7275;50.328;8.720;2023-08-17T00:31:54;3.07;;;1.10;;
14381;SDS011;7275;50.328;8.720;2023-08-17T00:34:21;2.40;;;1.10;;
14381;SDS011;7275;50.328;8.720;2023-08-17T00:36:49;3.93;;;1.20;;
14381;SDS011;7275;50.328;8.720;2023-08-17T00:39:16;1.57;;;1.30;;
14381;SDS011;7275;50.328;8.720;2023-08-17T00:41:44;3.43;;;1.20;;
14381;SDS011;7275;50.328;8.720;2023-08-17T00:44:12;2.97;;;1.60;;
14381;SDS011;7275;50.328;8.720;2023-08-17T00:46:40;2.40;;;1.40;;
14381;SDS011;7275;50.328;8.720;2023-08-17T00:49:09;1.67;;;1.40;;
14381;SDS011;7275;50.328;8.720;2023-08-17T00:51:37;3.00;;;1.40;;
14381;SDS011;7275;50.328;8.720;2023-08-17T00:54:06;2.63;;;1.40;;
14381;SDS011;7275;50.328;8.720;2023-08-17T00:56:34;1.50;;;1.33;;
14381;SDS011;7275;50.328;8.720;2023-08-17T00:59:03;1.60;;;1.20;;
14381;SDS011;7275;50.328;8.720;2023-08-17T01:01:30;4.90;;;1.20;;
14381;SDS011;7275;50.328;8.720;2023-08-17T01:03:58;1.63;;;1.00;;
14381;SDS011;7275;50.328;8.720;2023-08-17T01:06:27;2.30;;;1.30;;
14381;SDS011;7275;50.328;8.720;2023-08-17T01:08:54;2.30;;;1.10;;
14381;SDS011;7275;50.328;8.720;2023-08-17T01:11:24;3.13;;;1.20;;
14381;SDS011;7275;50.328;8.720;2023-08-17T01:13:57;1.47;;;1.07;;
14381;SDS011;7275;50.328;8.720;2023-08-17T01:16:33;1.33;;;1.10;;
14381;SDS011;7275;50.328;8.720;2023-08-17T01:19:08;2.63;;;1.10;;
14381;SDS011;7275;50.328;8.720;2023-08-17T01:21:40;1.37;;;1.20;;
14381;SDS011;7275;50.328;8.720;2023-08-17T01:24:11;1.60;;;1.10;;
14381;SDS011;7275;50.328;8.720;2023-08-17T01:26:39;2.37;;;1.10;;
14381;SDS011;7275;50.328;8.720;2023-08-17T01:29:06;2.03;;;1.20;;
14381;SDS011;7275;50.328;8.720;2023-08-17T01:31:36;2.17;;;1.03;;
14381;SDS011;7275;50.328;8.720;2023-08-17T01:34:10;2.03;;;1.10;;
14381;SDS011;7275;50.328;8.720;2023-08-17T01:36:46;2.63;;;1.10;;
14381;SDS011;7275;50.328;8.720;2023-08-17T01:39:19;1.20;;;1.00;;
14381;SDS011;7275;50.328;8.720;2023-08-17T01:41:50;1.07;;;0.90;;
14381;SDS011;7275;50.328;8.720;2023-08-17T01:44:20;2.03;;;1.23;;
14381;SDS011;7275;50.328;8.720;2023-08-17T01:46:48;1.43;;;1.20;;
14381;SDS011;7275;50.328;8.720;2023-08-17T01:49:15;2.27;;;1.20;;
14381;SDS011;7275;50.328;8.720;2023-08-17T01:51:43;4.07;;;1.10;;
14381;SDS011;7275;50.328;8.720;2023-08-17T01:54:11;1.43;;;1.20;;
14381;SDS011;7275;50.328;8.720;2023-08-17T01:56:39;2.47;;;1.27;;
14381;SDS011;7275;50.328;8.720;2023-08-17T01:59:07;1.87;;;1.10;;
14381;SDS011;7275;50.328;8.720;2023-08-17T02:01:34;3.13;;;1.20;;
14381;SDS011;7275;50.328;8.720;2023-08-17T02:04:02;1.07;;;1.00;;
14381;SDS011;7275;50.328;8.720;2023-08-17T02:06:30;1.77;;;1.10;;
14381;SDS011;7275;50.328;8.720;2023-08-17T02:08:57;3.63;;;1.10;;
14381;SDS011;7275;50.328;8.720;2023-08-17T02:11:25;4.00;;;1.20;;
14381;SDS011;7275;50.328;8.720;2023-08-17T02:13:54;2.33;;;1.10;;
14381;SDS011;7275;50.328;8.720;2023-08-17T02:16:22;3.60;;;1.10;;
14381;SDS011;7275;50.328;8.720;2023-08-17T02:18:49;1.67;;;1.10;;
14381;SDS011;7275;50.328;8.720;2023-08-17T02:21:17;3.00;;;1.20;;
14381;SDS011;7275;50.328;8.720;2023-08-17T02:23:44;3.00;;;1.50;;
14381;SDS011;7275;50.328;8.720;2023-08-17T02:26:12;1.10;;;1.00;;
14381;SDS011;7275;50.328;8.720;2023-08-17T02:28:40;2.07;;;1.10;;
14381;SDS011;7275;50.328;8.720;2023-08-17T02:31:08;2.40;;;0.90;;
14381;SDS011;7275;50.328;8.720;2023-08-17T02:33:36;1.77;;;1.03;;
14381;SDS011;7275;50.328;8.720;2023-08-17T02:36:04;4.20;;;1.00;;
14381;SDS011;7275;50.328;8.720;2023-08-17T02:38:32;2.27;;;1.00;;
14381;SDS011;7275;50.328;8.720;2023-08-17T02:41:00;3.03;;;1.17;;
14381;SDS011;7275;50.328;8.720;2023-08-17T02:43:27;2.47;;;1.10;;
14381;SDS011;7275;50.328;8.720;2023-08-17T02:45:55;2.10;;;1.30;;
14381;SDS011;7275;50.328;8.720;2023-08-17T02:48:23;2.43;;;0.97;;
14381;SDS011;7275;50.328;8.720;2023-08-17T02:50:51;1.63;;;1.10;;
14381;SDS011;7275;50.328;8.720;2023-08-17T02:53:18;1.83;;;1.00;;
14381;SDS011;7275;50.328;8.720;2023-08-17T02:55:46;1.43;;;1.00;;
14381;SDS011;7275;50.328;8.720;2023-08-17T02:58:13;2.17;;;1.00;;
14381;SDS011;7275;50.328;8.720;2023-08-17T03:00:41;2.67;;;1.10;;
14381;SDS011;7275;50.328;8.720;2023-08-17T03:03:09;1.10;;;1.00;;
14381;SDS011;7275;50.328;8.720;2023-08-17T03:05:38;1.03;;;1.00;;
14381;SDS011;7275;50.328;8.720;2023-08-17T03:08:05;1.10;;;1.00;;
14381;SDS011;7275;50.328;8.720;2023-08-17T03:10:33;3.43;;;1.10;;
14381;SDS011;7275;50.328;8.720;2023-08-17T03:13:01;1.53;;;1.10;;
14381;SDS011;7275;50.328;8.720;2023-08-17T03:15:28;1.07;;;1.00;;
14381;SDS011;7275;50.328;8.720;2023-08-17T03:17:56;3.47;;;1.30;;
14381;SDS011;7275;50.328;8.720;2023-08-17T03:20:23;1.70;;;1.10;;
14381;SDS011;7275;50.328;8.720;2023-08-17T03:22:52;1.20;;;1.10;;
14381;SDS011;7275;50.328;8.720;2023-08-17T03:25:20;2.83;;;1.20;;
14381;SDS011;7275;50.328;8.720;2023-08-17T03:27:47;1.83;;;1.00;;
14381;SDS011;7275;50.328;8.720;2023-08-17T03:30:15;2.83;;;1.30;;
14381;SDS011;7275;50.328;8.720;2023-08-17T03:32:43;3.47;;;1.20;;
14381;SDS011;7275;50.328;8.720;2023-08-17T03:35:10;1.77;;;1.10;;
14381;SDS011;7275;50.328;8.720;2023-08-17T03:37:39;2.70;;;1.10;;
14381;SDS011;7275;50.328;8.720;2023-08-17T03:40:08;1.33;;;1.20;;
14381;SDS011;7275;50.328;8.720;2023-08-17T03:42:36;1.57;;;1.00;;
14381;SDS011;7275;50.328;8.720;2023-08-17T03:45:04;1.20;;;1.10;;
14381;SDS011;7275;50.328;8.720;2023-08-17T03:47:32;2.40;;;1.17;;
14381;SDS011;7275;50.328;8.720;2023-08-17T03:50:00;1.30;;;1.20;;
14381;SDS011;7275;50.328;8.720;2023-08-17T03:52:28;1.20;;;0.90;;
14381;SDS011;7275;50.328;8.720;2023-08-17T03:54:55;2.60;;;1.30;;
14381;SDS011;7275;50.328;8.720;2023-08-17T03:57:24;1.03;;;0.93;;
14381;SDS011;7275;50.328;8.720;2023-08-17T03:59:52;2.43;;;1.20;;
14381;SDS011;7275;50.328;8.720;2023-08-17T04:02:20;2.23;;;1.20;;
14381;SDS011;7275;50.328;8.720;2023-08-17T04:04:47;1.43;;;1.10;;
14381;SDS011;7275;50.328;8.720;2023-08-17T04:07:20;2.37;;;1.70;;
14381;SDS011;7275;50.328;8.720;2023-08-17T04:09:49;2.97;;;1.60;;
14381;SDS011;7275;50.328;8.720;2023-08-17T04:12:16;2.63;;;1.83;;
14381;SDS011;7275;50.328;8.720;2023-08-17T04:14:46;1.90;;;1.80;;
14381;SDS011;7275;50.328;8.720;2023-08-17T04:17:13;2.67;;;2.47;;
14381;SDS011;7275;50.328;8.720;2023-08-17T04:19:41;4.50;;;2.30;;
14381;SDS011;7275;50.328;8.720;2023-08-17T04:22:09;2.17;;;1.97;;
14381;SDS011;7275;50.328;8.720;2023-08-17T04:24:36;3.50;;;2.60;;
14381;SDS011;7275;50.328;8.720;2023-08-17T04:27:04;3.13;;;2.33;;
14381;SDS011;7275;50.328;8.720;2023-08-17T04:29:31;4.10;;;2.70;;
14381;SDS011;7275;50.328;8.720;2023-08-17T04:32:00;2.80;;;2.50;;
14381;SDS011;7275;50.328;8.720;2023-08-17T04:34:28;3.63;;;3.03;;
14381;SDS011;7275;50.328;8.720;2023-08-17T04:36:55;3.30;;;2.87;;
14381;SDS011;7275;50.328;8.720;2023-08-17T04:39:23;3.30;;;2.83;;
14381;SDS011;7275;50.328;8.720;2023-08-17T04:41:50;4.43;;;3.00;;
14381;SDS011;7275;50.328;8.720;2023-08-17T04:44:18;4.03;;;3.60;;
14381;SDS011;7275;50.328;8.720;2023-08-17T04:46:45;3.43;;;3.13;;
14381;SDS011;7275;50.328;8.720;2023-08-17T04:49:14;4.47;;;3.07;;
14381;SDS011;7275;50.328;8.720;2023-08-17T04:51:42;4.60;;;3.27;;
14381;SDS011;7275;50.328;8.720;2023-08-17T04:54:09;3.40;;;3.10;;
14381;SDS011;7275;50.328;8.720;2023-08-17T04:56:37;3.77;;;3.20;;
14381;SDS011;7275;50.328;8.720;2023-08-17T04:59:04;3.30;;;3.00;;
14381;SDS011;7275;50.328;8.720;2023-08-17T05:01:32;3.70;;;3.40;;
14381;SDS011;7275;50.328;8.720;2023-08-17T05:04:00;3.83;;;3.50;;
14381;SDS011;7275;50.328;8.720;2023-08-17T05:06:29;4.63;;;4.10;;
14381;SDS011;7275;50.328;8.720;2023-08-17T05:08:57;5.17;;;4.40;;
14381;SDS011;7275;50.328;8.720;2023-08-17T05:11:26;4.53;;;4.13;;
14381;SDS011;7275;50.328;8.720;2023-08-17T05:13:53;5.10;;;4.60;;
14381;SDS011;7275;50.328;8.720;2023-08-17T05:16:21;5.23;;;4.73;;
14381;SDS011;7275;50.328;8.720;2023-08-17T05:18:48;4.50;;;4.10;;
14381;SDS011;7275;50.328;8.720;2023-08-17T05:21:16;4.20;;;3.80;;
14381;SDS011;7275;50.328;8.720;2023-08-17T05:23:45;4.40;;;4.00;;
14381;SDS011;7275;50.328;8.720;2023-08-17T05:26:12;4.30;;;3.90;;
14381;SDS011;7275;50.328;8.720;2023-08-17T05:28:41;4.67;;;4.27;;
14381;SDS011;7275;50.328;8.720;2023-08-17T05:31:09;4.70;;;4.30;;
14381;SDS011;7275;50.328;8.720;2023-08-17T05:33:37;4.50;;;4.10;;
14381;SDS011;7275;50.328;8.720;2023-08-17T05:36:07;3.70;;;3.40;;
14381;SDS011;7275;50.328;8.720;2023-08-17T05:38:34;3.50;;;3.20;;
14381;SDS011;7275;50.328;8.720;2023-08-17T05:41:03;4.23;;;3.40;;
14381;SDS011;7275;50.328;8.720;2023-08-17T05:43:31;3.17;;;2.90;;
14381;SDS011;7275;50.328;8.720;2023-08-17T05:45:58;3.00;;;2.70;;
14381;SDS011;7275;50.328;8.720;2023-08-17T05:48:26;3.37;;;2.73;;
14381;SDS011;7275;50.328;8.720;2023-08-17T05:50:55;4.30;;;2.60;;
14381;SDS011;7275;50.328;8.720;2023-08-17T05:53:22;2.50;;;2.30;;
14381;SDS011;7275;50.328;8.720;2023-08-17T05:55:50;3.33;;;2.63;;
14381;SDS011;7275;50.328;8.720;2023-08-17T05:58:19;2.33;;;2.13;;
14381;SDS011;7275;50.328;8.720;2023-08-17T06:00:47;2.50;;;2.30;;
14381;SDS011;7275;50.328;8.720;2023-08-17T06:03:14;2.00;;;1.80;;
14381;SDS011;7275;50.328;8.720;2023-08-17T06:05:42;2.57;;;1.93;;
14381;SDS011;7275;50.328;8.720;2023-08-17T06:08:09;2.60;;;2.13;;
14381;SDS011;7275;50.328;8.720;2023-08-17T06:10:37;2.20;;;2.00;;
14381;SDS011;7275;50.328;8.720;2023-08-17T06:13:04;2.37;;;2.17;;
14381;SDS011;7275;50.328;8.720;2023-08-17T06:15:33;2.00;;;1.80;;
14381;SDS011;7275;50.328;8.720;2023-08-17T06:18:01;2.70;;;1.90;;
14381;SDS011;7275;50.328;8.720;2023-08-17T06:20:29;3.13;;;2.20;;
14381;SDS011;7275;50.328;8.720;2023-08-17T06:22:56;2.50;;;2.30;;
14381;SDS011;7275;50.328;8.720;2023-08-17T06:25:26;2.20;;;2.00;;
14381;SDS011;7275;50.328;8.720;2023-08-17T06:27:53;2.17;;;1.97;;
14381;SDS011;7275;50.328;8.720;2023-08-17T06:30:22;2.50;;;2.30;;
14381;SDS011;7275;50.328;8.720;2023-08-17T06:32:51;2.28;;;2.08;;
14381;SDS011;7275;50.328;8.720;2023-08-17T06:35:19;2.40;;;1.80;;
14381;SDS011;7275;50.328;8.720;2023-08-17T06:37:46;2.08;;;1.90;;
14381;SDS011;7275;50.328;8.720;2023-08-17T06:40:14;2.30;;;1.83;;
14381;SDS011;7275;50.328;8.720;2023-08-17T06:42:41;2.45;;;1.95;;
14381;SDS011;7275;50.328;8.720;2023-08-17T06:45:09;2.35;;;2.00;;
14381;SDS011;7275;50.328;8.720;2023-08-17T06:47:37;2.97;;;2.15;;
14381;SDS011;7275;50.328;8.720;2023-08-17T06:50:06;2.58;;;2.22;;
14381;SDS011;7275;50.328;8.720;2023-08-17T06:52:38;2.60;;;2.10;;
14381;SDS011;7275;50.328;8.720;2023-08-17T06:55:07;2.17;;;1.98;;
14381;SDS011;7275;50.328;8.720;2023-08-17T06:57:35;2.13;;;1.90;;
14381;SDS011;7275;50.328;8.720;2023-08-17T07:00:03;2.10;;;1.90;;
14381;SDS011;7275;50.328;8.720;2023-08-17T07:02:32;2.25;;;2.05;;
14381;SDS011;7275;50.328;8.720;2023-08-17T07:05:19;2.33;;;1.70;;
14381;SDS011;7275;50.328;8.720;2023-08-17T07:07:46;3.15;;;2.03;;
14381;SDS011;7275;50.328;8.720;2023-08-17T07:10:14;1.80;;;1.70;;
14381;SDS011;7275;50.328;8.720;2023-08-17T07:12:41;1.95;;;1.70;;
14381;SDS011;7275;50.328;8.720;2023-08-17T07:15:09;2.65;;;1.85;;
14381;SDS011;7275;50.328;8.720;2023-08-17T07:17:37;2.35;;;1.88;;
14381;SDS011;7275;50.328;8.720;2023-08-17T07:20:05;3.35;;;2.00;;
14381;SDS011;7275;50.328;8.720;2023-08-17T07:22:38;2.38;;;1.67;;
14381;SDS011;7275;50.328;8.720;2023-08-17T07:25:06;1.90;;;1.70;;
14381;SDS011;7275;50.328;8.720;2023-08-17T07:27:34;1.70;;;1.60;;
14381;SDS011;7275;50.328;8.720;2023-08-17T07:30:02;3.00;;;1.48;;
14381;SDS011;7275;50.328;8.720;2023-08-17T07:32:30;1.63;;;1.33;;
14381;SDS011;7275;50.328;8.720;2023-08-17T07:34:58;1.90;;;1.50;;
14381;SDS011;7275;50.328;8.720;2023-08-17T07:37:26;1.50;;;1.40;;
14381;SDS011;7275;50.328;8.720;2023-08-17T07:40:00;1.50;;;1.40;;
14381;SDS011;7275;50.328;8.720;2023-08-17T07:42:29;1.42;;;1.33;;
14381;SDS011;7275;50.328;8.720;2023-08-17T07:44:57;3.72;;;1.50;;
14381;SDS011;7275;50.328;8.720;2023-08-17T07:47:25;1.40;;;1.30;;
14381;SDS011;7275;50.328;8.720;2023-08-17T07:49:53;1.27;;;1.10;;
14381;SDS011;7275;50.328;8.720;2023-08-17T07:52:21;1.45;;;1.30;;
14381;SDS011;7275;50.328;8.720;2023-08-17T07:54:48;1.42;;;1.33;;
14381;SDS011;7275;50.328;8.720;2023-08-17T07:57:17;1.50;;;1.40;;
14381;SDS011;7275;50.328;8.720;2023-08-17T07:59:45;2.95;;;1.38;;
14381;SDS011;7275;50.328;8.720;2023-08-17T08:02:12;1.88;;;1.38;;
14381;SDS011;7275;50.328;8.720;2023-08-17T08:04:40;1.48;;;1.38;;
14381;SDS011;7275;50.328;8.720;2023-08-17T08:07:07;1.30;;;1.20;;
14381;SDS011;7275;50.328;8.720;2023-08-17T08:09:35;1.40;;;1.30;;
14381;SDS011;7275;50.328;8.720;2023-08-17T08:12:03;2.10;;;1.27;;
14381;SDS011;7275;50.328;8.720;2023-08-17T08:17:00;1.58;;;1.27;;
14381;SDS011;7275;50.328;8.720;2023-08-17T08:19:28;1.40;;;1.30;;
14381;SDS011;7275;50.328;8.720;2023-08-17T08:21:56;1.20;;;1.10;;
14381;SDS011;7275;50.328;8.720;2023-08-17T08:24:23;1.73;;;1.20;;
14381;SDS011;7275;50.328;8.720;2023-08-17T08:27:03;1.20;;;1.10;;
14381;SDS011;7275;50.328;8.720;2023-08-17T08:29:30;1.15;;;1.05;;
14381;SDS011;7275;50.328;8.720;2023-08-17T08:32:00;1.27;;;1.17;;
14381;SDS011;7275;50.328;8.720;2023-08-17T08:34:29;1.30;;;1.17;;
14381;SDS011;7275;50.328;8.720;2023-08-17T08:36:56;1.13;;;1.02;;
14381;SDS011;7275;50.328;8.720;2023-08-17T08:39:25;2.35;;;1.20;;
14381;SDS011;7275;50.328;8.720;2023-08-17T08:41:53;1.40;;;1.30;;
14381;SDS011;7275;50.328;8.720;2023-08-17T08:44:20;1.95;;;1.10;;
14381;SDS011;7275;50.328;8.720;2023-08-17T08:46:48;1.67;;;1.25;;
14381;SDS011;7275;50.328;8.720;2023-08-17T08:49:19;2.03;;;1.20;;
14381;SDS011;7275;50.328;8.720;2023-08-17T08:51:50;1.42;;;1.20;;
14381;SDS011;7275;50.328;8.720;2023-08-17T08:54:20;1.38;;;1.27;;
14381;SDS011;7275;50.328;8.720;2023-08-17T08:56:50;1.80;;;1.10;;
14381;SDS011;7275;50.328;8.720;2023-08-17T08:59:21;2.30;;;1.40;;
14381;SDS011;7275;50.328;8.720;2023-08-17T09:01:50;1.58;;;1.30;;
14381;SDS011;7275;50.328;8.720;2023-08-17T09:04:19;1.30;;;1.20;;
14381;SDS011;7275;50.328;8.720;2023-08-17T09:06:47;1.55;;;1.10;;
14381;SDS011;7275;50.328;8.720;2023-08-17T09:09:15;1.38;;;1.10;;
14381;SDS011;7275;50.328;8.720;2023-08-17T09:11:43;1.33;;;1.23;;
14381;SDS011;7275;50.328;8.720;2023-08-17T09:14:10;1.30;;;1.20;;
14381;SDS011;7275;50.328;8.720;2023-08-17T09:16:38;1.48;;;1.20;;
14381;SDS011;7275;50.328;8.720;2023-08-17T09:19:06;1.20;;;1.10;;
14381;SDS011;7275;50.328;8.720;2023-08-17T09:21:35;1.52;;;1.20;;
14381;SDS011;7275;50.328;8.720;2023-08-17T09:24:02;2.15;;;1.40;;
14381;SDS011;7275;50.328;8.720;2023-08-17T09:26:30;3.78;;;1.40;;
14381;SDS011;7275;50.328;8.720;2023-08-17T09:28:59;1.70;;;1.52;;
14381;SDS011;7275;50.328;8.720;2023-08-17T09:31:30;1.50;;;1.40;;
14381;SDS011;7275;50.328;8.720;2023-08-17T09:50:05;1.70;;;1.38;;
14381;SDS011;7275;50.328;8.720;2023-08-17T09:52:33;2.85;;;1.40;;
14381;SDS011;7275;50.328;8.720;2023-08-17T09:55:06;1.33;;;1.20;;
14381;SDS011;7275;50.328;8.720;2023-08-17T09:57:36;1.85;;;1.38;;
14381;SDS011;7275;50.328;8.720;2023-08-17T10:00:06;1.75;;;1.35;;
14381;SDS011;7275;50.328;8.720;2023-08-17T10:02:35;1.48;;;1.30;;
14381;SDS011;7275;50.328;8.720;2023-08-17T10:05:04;1.55;;;1.30;;
14381;SDS011;7275;50.328;8.720;2023-08-17T10:07:35;1.58;;;1.30;;
14381;SDS011;7275;50.328;8.720;2023-08-17T10:10:08;1.98;;;1.30;;
14381;SDS011;7275;50.328;8.720;2023-08-17T10:12:37;2.53;;;1.90;;
14381;SDS011;7275;50.328;8.720;2023-08-17T10:15:10;2.58;;;1.70;;
14381;SDS011;7275;50.328;8.720;2023-08-17T10:17:46;1.83;;;1.50;;
14381;SDS011;7275;50.328;8.720;2023-08-17T10:20:22;2.40;;;1.80;;
14381;SDS011;7275;50.328;8.720;2023-08-17T10:22:52;1.98;;;1.70;;
14381;SDS011;7275;50.328;8.720;2023-08-17T10:25:26;3.03;;;1.73;;
14381;SDS011;7275;50.328;8.720;2023-08-17T10:27:54;2.15;;;1.60;;
14381;SDS011;7275;50.328;8.720;2023-08-17T10:30:25;2.55;;;1.80;;
14381;SDS011;7275;50.328;8.720;2023-08-17T10:32:53;2.45;;;2.25;;
14381;SDS011;7275;50.328;8.720;2023-08-17T10:35:20;4.25;;;2.38;;
14381;SDS011;7275;50.328;8.720;2023-08-17T10:37:50;3.05;;;2.13;;
14381;SDS011;7275;50.328;8.720;2023-08-17T10:40:21;3.03;;;2.60;;
14381;SDS011;7275;50.328;8.720;2023-08-17T10:42:53;2.60;;;2.40;;
14381;SDS011;7275;50.328;8.720;2023-08-17T10:45:25;3.03;;;2.55;;
14381;SDS011;7275;50.328;8.720;2023-08-17T10:51:00;3.25;;;2.45;;
14381;SDS011;7275;50.328;8.720;2023-08-17T10:53:33;2.67;;;2.33;;
14381;SDS011;7275;50.328;8.720;2023-08-17T10:56:06;2.38;;;2.10;;
14381;SDS011;7275;50.328;8.720;2023-08-17T10:58:36;2.45;;;2.25;;
14381;SDS011;7275;50.328;8.720;2023-08-17T11:19:44;2.97;;;2.00;;
14381;SDS011;7275;50.328;8.720;2023-08-17T11:22:12;3.17;;;2.00;;
14381;SDS011;7275;50.328;8.720;2023-08-17T11:24:39;2.95;;;2.05;;
14381;SDS011;7275;50.328;8.720;2023-08-17T11:27:08;2.65;;;2.42;;
14381;SDS011;7275;50.328;8.720;2023-08-17T11:29:36;2.70;;;2.20;;
14381;SDS011;7275;50.328;8.720;2023-08-17T11:32:09;2.33;;;2.13;;
14381;SDS011;7275;50.328;8.720;2023-08-17T11:34:37;2.47;;;2.25;;
14381;SDS011;7275;50.328;8.720;2023-08-17T11:37:06;2.00;;;1.73;;
14381;SDS011;7275;50.328;8.720;2023-08-17T11:39:33;3.78;;;2.03;;
14381;SDS011;7275;50.328;8.720;2023-08-17T11:42:01;2.00;;;1.80;;
14381;SDS011;7275;50.328;8.720;2023-08-17T11:44:29;2.20;;;1.85;;
14381;SDS011;7275;50.328;8.720;2023-08-17T11:46:56;1.80;;;1.70;;
14381;SDS011;7275;50.328;8.720;2023-08-17T11:49:24;1.95;;;1.75;;
14381;SDS011;7275;50.328;8.720;2023-08-17T11:51:52;3.47;;;1.77;;
14381;SDS011;7275;50.328;8.720;2023-08-17T11:54:20;2.15;;;1.95;;
14381;SDS011;7275;50.328;8.720;2023-08-17T11:56:48;2.25;;;1.50;;
14381;SDS011;7275;50.328;8.720;2023-08-17T11:59:16;2.03;;;1.70;;
14381;SDS011;7275;50.328;8.720;2023-08-17T12:01:44;1.70;;;1.60;;
14381;SDS011;7275;50.328;8.720;2023-08-17T12:04:12;1.83;;;1.73;;
14381;SDS011;7275;50.328;8.720;2023-08-17T12:06:42;1.60;;;1.50;;
14381;SDS011;7275;50.328;8.720;2023-08-17T12:09:10;2.13;;;1.90;;
14381;SDS011;7275;50.328;8.720;2023-08-17T12:11:41;1.83;;;1.73;;
14381;SDS011;7275;50.328;8.720;2023-08-17T12:14:08;1.83;;;1.60;;
14381;SDS011;7275;50.328;8.720;2023-08-17T12:16:44;1.80;;;1.70;;
14381;SDS011;7275;50.328;8.720;2023-08-17T12:19:14;1.55;;;1.45;;
14381;SDS011;7275;50.328;8.720;2023-08-17T12:21:42;2.10;;;1.90;;
14381;SDS011;7275;50.328;8.720;2023-08-17T12:24:09;1.92;;;1.70;;
14381;SDS011;7275;50.328;8.720;2023-08-17T12:26:42;2.53;;;1.85;;
14381;SDS011;7275;50.328;8.720;2023-08-17T12:29:10;2.17;;;1.50;;
14381;SDS011;7275;50.328;8.720;2023-08-17T12:31:38;1.70;;;1.60;;
14381;SDS011;7275;50.328;8.720;2023-08-17T12:34:06;1.63;;;1.52;;
14381;SDS011;7275;50.328;8.720;2023-08-17T12:36:33;1.60;;;1.50;;
14381;SDS011;7275;50.328;8.720;2023-08-17T12:39:01;1.60;;;1.50;;
14381;SDS011;7275;50.328;8.720;2023-08-17T12:41:30;1.60;;;1.50;;
14381;SDS011;7275;50.328;8.720;2023-08-17T12:43:59;1.60;;;1.50;;
14381;SDS011;7275;50.328;8.720;2023-08-17T12:46:27;1.55;;;1.45;;
14381;SDS011;7275;50.328;8.720;2023-08-17T12:48:59;1.55;;;1.40;;
14381;SDS011;7275;50.328;8.720;2023-08-17T12:51:26;1.75;;;1.65;;
14381;SDS011;7275;50.328;8.720;2023-08-17T12:53:54;1.58;;;1.45;;
14381;SDS011;7275;50.328;8.720;2023-08-17T12:56:21;1.55;;;1.45;;
14381;SDS011;7275;50.328;8.720;2023-08-17T12:58:49;1.67;;;1.58;;
14381;SDS011;7275;50.328;8.720;2023-08-17T13:01:18;2.22;;;1.60;;
14381;SDS011;7275;50.328;8.720;2023-08-17T13:03:45;1.60;;;1.40;;
14381;SDS011;7275;50.328;8.720;2023-08-17T13:06:13;2.65;;;1.75;;
14381;SDS011;7275;50.328;8.720;2023-08-17T13:08:40;1.65;;;1.52;;
14381;SDS011;7275;50.328;8.720;2023-08-17T13:11:08;2.00;;;1.38;;
14381;SDS011;7275;50.328;8.720;2023-08-17T13:13:35;1.70;;;1.60;;
14381;SDS011;7275;50.328;8.720;2023-08-17T13:16:03;1.67;;;1.50;;
14381;SDS011;7275;50.328;8.720;2023-08-17T13:18:33;1.92;;;1.67;;
14381;SDS011;7275;50.328;8.720;2023-08-17T13:21:00;1.75;;;1.65;;
14381;SDS011;7275;50.328;8.720;2023-08-17T13:23:28;1.50;;;1.40;;
14381;SDS011;7275;50.328;8.720;2023-08-17T13:25:55;1.42;;;1.33;;
14381;SDS011;7275;50.328;8.720;2023-08-17T13:28:23;1.60;;;1.50;;
14381;SDS011;7275;50.328;8.720;2023-08-17T13:30:51;1.48;;;1.35;;
14381;SDS011;7275;50.328;8.720;2023-08-17T13:33:18;1.55;;;1.45;;
14381;SDS011;7275;50.328;8.720;2023-08-17T13:35:47;1.50;;;1.40;;
14381;SDS011;7275;50.328;8.720;2023-08-17T13:38:15;1.50;;;1.40;;
14381;SDS011;7275;50.328;8.720;2023-08-17T13:40:42;1.80;;;1.35;;
14381;SDS011;7275;50.328;8.720;2023-08-17T13:43:10;3.75;;;1.50;;
14381;SDS011;7275;50.328;8.720;2023-08-17T13:45:39;2.75;;;1.50;;
14381;SDS011;7275;50.328;8.720;2023-08-17T13:48:07;2.72;;;1.42;;
14381;SDS011;7275;50.328;8.720;2023-08-17T13:50:37;1.77;;;1.52;;
14381;SDS011;7275;50.328;8.720;2023-08-17T13:53:07;1.63;;;1.50;;
14381;SDS011;7275;50.328;8.720;2023-08-17T13:55:34;1.60;;;1.50;;
14381;SDS011;7275;50.328;8.720;2023-08-17T13:58:02;1.75;;;1.65;;
14381;SDS011;7275;50.328;8.720;2023-08-17T14:00:30;2.00;;;1.60;;
14381;SDS011;7275;50.328;8.720;2023-08-17T14:02:57;1.73;;;1.63;;
14381;SDS011;7275;50.328;8.720;2023-08-17T14:05:25;1.77;;;1.50;;
14381;SDS011;7275;50.328;8.720;2023-08-17T14:07:53;5.60;;;3.58;;
14381;SDS011;7275;50.328;8.720;2023-08-17T14:10:22;3.45;;;2.40;;
14381;SDS011;7275;50.328;8.720;2023-08-17T14:13:03;2.03;;;1.80;;
14381;SDS011;7275;50.328;8.720;2023-08-17T14:15:31;3.60;;;2.40;;
14381;SDS011;7275;50.328;8.720;2023-08-17T14:17:59;2.33;;;2.05;;
14381;SDS011;7275;50.328;8.720;2023-08-17T14:20:27;4.03;;;3.08;;
14381;SDS011;7275;50.328;8.720;2023-08-17T14:22:55;2.40;;;1.98;;
14381;SDS011;7275;50.328;8.720;2023-08-17T14:25:24;1.98;;;1.70;;
14381;SDS011;7275;50.328;8.720;2023-08-17T14:27:51;1.70;;;1.60;;
14381;SDS011;7275;50.328;8.720;2023-08-17T14:30:19;2.28;;;1.60;;
14381;SDS011;7275;50.328;8.720;2023-08-17T14:32:50;2.03;;;1.65;;
14381;SDS011;7275;50.328;8.720;2023-08-17T14:35:17;2.88;;;2.40;;
14381;SDS011;7275;50.328;8.720;2023-08-17T14:37:45;3.63;;;1.60;;
14381;SDS011;7275;50.328;8.720;2023-08-17T14:40:12;4.20;;;2.38;;
14381;SDS011;7275;50.328;8.720;2023-08-17T14:42:42;2.30;;;1.67;;
14381;SDS011;7275;50.328;8.720;2023-08-17T14:45:10;1.60;;;1.50;;
14381;SDS011;7275;50.328;8.720;2023-08-17T14:47:38;1.73;;;1.63;;
14381;SDS011;7275;50.328;8.720;2023-08-17T14:50:06;1.60;;;1.50;;
14381;SDS011;7275;50.328;8.720;2023-08-17T14:52:34;1.67;;;1.48;;
14381;SDS011;7275;50.328;8.720;2023-08-17T14:55:01;5.00;;;1.80;;
14381;SDS011;7275;50.328;8.720;2023-08-17T14:57:30;1.70;;;1.60;;
14381;SDS011;7275;50.328;8.720;2023-08-17T14:59:59;1.60;;;1.50;;
14381;SDS011;7275;50.328;8.720;2023-08-17T15:02:27;1.42;;;1.33;;
14381;SDS011;7275;50.328;8.720;2023-08-17T15:04:54;1.80;;;1.45;;
14381;SDS011;7275;50.328;8.720;2023-08-17T15:07:22;1.52;;;1.42;;
14381;SDS011;7275;50.328;8.720;2023-08-17T15:09:50;2.60;;;1.95;;
14381;SDS011;7275;50.328;8.720;2023-08-17T15:12:19;1.98;;;1.77;;
14381;SDS011;7275;50.328;8.720;2023-08-17T15:14:49;2.40;;;1.50;;
14381;SDS011;7275;50.328;8.720;2023-08-17T15:17:18;1.50;;;1.40;;
14381;SDS011;7275;50.328;8.720;2023-08-17T15:19:46;1.50;;;1.40;;
14381;SDS011;7275;50.328;8.720;2023-08-17T15:22:13;2.10;;;1.50;;
14381;SDS011;7275;50.328;8.720;2023-08-17T15:24:41;1.73;;;1.63;;
14381;SDS011;7275;50.328;8.720;2023-08-17T15:27:10;1.50;;;1.40;;
14381;SDS011;7275;50.328;8.720;2023-08-17T15:29:38;1.80;;;1.70;;
14381;SDS011;7275;50.328;8.720;2023-08-17T15:32:06;1.70;;;1.60;;
14381;SDS011;7275;50.328;8.720;2023-08-17T15:34:35;3.80;;;1.52;;
14381;SDS011;7275;50.328;8.720;2023-08-17T15:37:03;1.63;;;1.50;;
14381;SDS011;7275;50.328;8.720;2023-08-17T15:39:31;1.88;;;1.50;;
14381;SDS011;7275;50.328;8.720;2023-08-17T15:41:58;1.60;;;1.50;;
14381;SDS011;7275;50.328;8.720;2023-08-17T15:44:26;4.13;;;1.45;;
14381;SDS011;7275;50.328;8.720;2023-08-17T15:46:56;2.72;;;1.80;;
14381;SDS011;7275;50.328;8.720;2023-08-17T15:49:27;2.22;;;1.40;;